Questa, New Mexico
Current Conditions -  °F | °C
As of 11:15 PM on Saturday 25 Oct 2014 (Local Time) from KSKX Reporting Station
Clear Clear  
Wind Chill: 43°   Ceiling: Unl
Heat Index: 43°   Visibility: 10mi
Dew Point: 19°   Wind: 0mph
Humidity: 39%   Direction: NA
Pressure: 30.28"   Gusts: NA
Location:  36.7°N, 105.59°W
Report Text: KSKX 260515Z AUTO 00000KT 10SM CLR 06/M07 A3028 RMK AO1
Loading
Personal Weather Stations






























Interactive Weather Map
Tropical Storm Tracking
New forecast layout! Learn more

10-Day Weather Forecast

Advertisements
Track Severe Weather on mobile